Time;durP1;ratioP1;P1;durP2;ratioP2;P2;SDS_P1;SDS_P2;PMS_P1;PMS_P2;Temp;Humidity;BMP_temperature;BMP_pressure;BME280_temperature;BME280_humidity;BME280_pressure;Samples;Min_cycle;Max_cycle;Signal;HPM_P1;HPM_P2
2022/06/10 00:01:52;;;;;;;43.55;24.98;;;17.40;99.90;;;;;;4984229;28;20040;-60
2022/06/10 00:04:18;;;;;;;39.67;25.88;;;17.50;99.90;;;;;;4913072;28;20490;-59
2022/06/10 00:06:44;;;;;;;41.92;25.27;;;17.50;99.90;;;;;;4787227;28;1712505;-60
2022/06/10 00:09:10;;;;;;;40.92;24.88;;;17.50;99.90;;;;;;4977408;28;20051;-60
2022/06/10 00:11:36;;;;;;;38.15;26.17;;;17.40;99.90;;;;;;5032063;28;20047;-60
2022/06/10 00:14:03;;;;;;;38.53;25.05;;;17.50;99.90;;;;;;5067236;27;20051;-60
2022/06/10 00:16:29;;;;;;;44.35;26.20;;;17.50;99.90;;;;;;4902041;27;20063;-59
2022/06/10 00:18:56;;;;;;;46.42;26.13;;;17.50;99.90;;;;;;5021285;28;20050;-60
2022/06/10 00:21:22;;;;;;;49.83;27.55;;;17.50;99.90;;;;;;5044877;27;20052;-60
2022/06/10 00:23:49;;;;;;;45.67;28.58;;;17.50;99.90;;;;;;5008947;28;20048;-60
2022/06/10 00:26:16;;;;;;;45.45;30.30;;;17.50;99.90;;;;;;5089055;27;20131;-60
2022/06/10 00:28:43;;;;;;;51.42;31.23;;;17.50;99.90;;;;;;5035742;28;20499;-59
2022/06/10 00:31:12;;;;;;;51.88;34.00;;;17.50;99.90;;;;;;5111883;27;20052;-59
2022/06/10 00:33:40;;;;;;;57.10;35.10;;;17.50;99.90;;;;;;5081091;27;20110;-60
2022/06/10 00:36:08;;;;;;;55.63;33.90;;;17.60;99.90;;;;;;5025960;27;20094;-59
2022/06/10 00:38:35;;;;;;;54.90;32.85;;;17.50;99.90;;;;;;4964011;27;1340876;-59
2022/06/10 00:41:01;;;;;;;55.47;35.97;;;17.60;99.90;;;;;;5098584;27;20083;-60
2022/06/10 00:43:31;;;;;;;58.88;36.08;;;17.60;99.90;;;;;;5087359;27;20125;-60
2022/06/10 00:46:29;;;;;;;55.90;36.37;;;17.60;99.90;;;;;;5011069;28;20044;-60
2022/06/10 00:49:07;;;;;;;57.00;36.53;;;17.60;99.90;;;;;;5085655;27;20055;-60
2022/06/10 00:51:42;;;;;;;54.53;33.92;;;17.60;99.90;;;;;;5045154;28;20120;-60
2022/06/10 00:54:10;;;;;;;56.47;35.42;;;17.60;99.90;;;;;;5073960;28;20032;-60
2022/06/10 00:56:40;;;;;;;58.65;35.55;;;17.60;99.90;;;;;;5075321;28;20028;-60
2022/06/10 00:59:15;;;;;;;57.42;33.70;;;17.60;99.90;;;;;;5073974;28;20056;-60
2022/06/10 01:01:41;;;;;;;52.83;32.15;;;17.60;99.90;;;;;;5074196;28;20095;-60
2022/06/10 01:04:09;;;;;;;49.95;31.58;;;17.60;99.90;;;;;;5074985;28;20082;-60
2022/06/10 01:06:35;;;;;;;44.70;30.33;;;17.60;99.90;;;;;;5073751;28;20033;-60
2022/06/10 01:09:02;;;;;;;49.58;31.48;;;17.60;99.90;;;;;;5073607;28;20035;-60
2022/06/10 01:11:31;;;;;;;44.97;27.70;;;17.60;99.90;;;;;;5075026;28;20040;-60
2022/06/10 01:14:19;;;;;;;38.17;25.60;;;17.70;99.90;;;;;;5073511;28;20029;-60
2022/06/10 01:17:00;;;;;;;34.55;23.25;;;17.70;99.90;;;;;;5073537;28;20032;-60
2022/06/10 01:20:19;;;;;;;29.83;19.58;;;17.70;99.90;;;;;;5074707;28;20035;-60
2022/06/10 01:23:03;;;;;;;29.23;19.17;;;17.70;99.90;;;;;;5019328;28;20051;-60
2022/06/10 01:25:50;;;;;;;22.48;15.48;;;17.70;99.90;;;;;;5073413;28;20055;-60
2022/06/10 01:28:34;;;;;;;25.33;16.88;;;17.70;99.90;;;;;;5073306;28;20523;-60
2022/06/10 01:31:12;;;;;;;19.08;15.07;;;17.70;99.90;;;;;;5074600;28;20044;-60
2022/06/10 01:33:59;;;;;;;23.73;15.50;;;17.70;99.90;;;;;;5074643;28;20028;-60
2022/06/10 01:36:34;;;;;;;20.38;14.27;;;17.70;99.90;;;;;;5074722;28;20035;-60
2022/06/10 01:39:41;;;;;;;18.83;14.02;;;17.60;99.90;;;;;;5074521;28;20502;-60
2022/06/10 01:42:27;;;;;;;17.02;14.15;;;17.70;99.90;;;;;;5066270;28;20036;-60
2022/06/10 01:45:02;;;;;;;17.05;13.55;;;17.60;99.90;;;;;;5073219;28;20045;-60
2022/06/10 01:47:46;;;;;;;14.43;12.23;;;17.60;99.90;;;;;;5074524;28;20035;-60
2022/06/10 01:50:23;;;;;;;16.00;13.82;;;17.60;99.90;;;;;;5073140;28;20035;-60
2022/06/10 01:52:52;;;;;;;16.83;13.75;;;17.50;99.90;;;;;;5074416;28;20120;-60
2022/06/10 01:55:23;;;;;;;20.90;13.50;;;17.60;99.90;;;;;;5074880;28;20039;-60
2022/06/10 01:58:12;;;;;;;16.15;13.15;;;17.70;99.90;;;;;;5073283;28;20025;-60
2022/06/10 02:00:43;;;;;;;22.15;14.25;;;17.70;99.90;;;;;;5072202;28;20044;-60
2022/06/10 02:03:15;;;;;;;20.02;14.48;;;17.70;99.90;;;;;;5074302;28;20028;-60
2022/06/10 02:05:47;;;;;;;19.77;14.27;;;17.70;99.90;;;;;;5074426;28;20082;-60
2022/06/10 02:08:19;;;;;;;15.57;13.05;;;17.70;99.90;;;;;;5073127;28;20037;-60
2022/06/10 02:10:53;;;;;;;18.80;14.27;;;17.70;99.90;;;;;;5074195;28;20035;-60
2022/06/10 02:13:27;;;;;;;18.15;13.32;;;17.70;99.90;;;;;;5076987;28;20033;-60
2022/06/10 02:15:57;;;;;;;14.25;12.07;;;17.70;99.90;;;;;;5077159;28;20104;-60
2022/06/10 02:19:15;;;;;;;15.50;12.38;;;17.70;99.90;;;;;;5078297;28;20037;-60
2022/06/10 02:21:50;;;;;;;15.20;12.05;;;17.70;99.90;;;;;;5016039;28;20029;-60
2022/06/10 02:24:33;;;;;;;19.00;13.90;;;17.80;99.90;;;;;;5016026;28;20034;-60
2022/06/10 02:27:05;;;;;;;14.82;12.63;;;17.80;99.90;;;;;;5015816;28;20072;-60
2022/06/10 02:30:01;;;;;;;15.05;10.70;;;17.80;99.90;;;;;;5016058;28;20030;-60
2022/06/10 02:32:31;;;;;;;13.68;11.07;;;17.80;99.90;;;;;;5015690;28;20460;-60
2022/06/10 02:34:58;;;;;;;12.53;11.33;;;17.80;99.90;;;;;;5015875;28;20619;-60
2022/06/10 02:37:42;;;;;;;12.45;11.15;;;17.80;99.90;;;;;;4999398;28;20038;-60
2022/06/10 02:40:43;;;;;;;19.63;10.80;;;17.80;99.90;;;;;;4998982;28;20093;-60
2022/06/10 02:43:28;;;;;;;13.07;11.70;;;17.80;99.90;;;;;;5012036;28;20034;-59
2022/06/10 02:46:25;;;;;;;16.98;12.55;;;17.80;99.90;;;;;;5015291;28;20034;-60
2022/06/10 02:49:05;;;;;;;15.90;12.88;;;17.80;99.90;;;;;;5015654;28;20130;-60
2022/06/10 02:51:32;;;;;;;16.98;14.27;;;17.80;99.90;;;;;;5028480;28;20048;-60
2022/06/10 02:53:59;;;;;;;17.40;14.15;;;17.80;99.90;;;;;;5077608;28;20036;-60
2022/06/10 02:56:28;;;;;;;22.33;16.55;;;17.90;99.90;;;;;;5077434;28;20032;-59
2022/06/10 03:02:20;;;;;;;27.08;21.70;;;17.80;99.90;;;;;;5077350;28;20028;-59
2022/06/10 03:05:39;;;;;;;27.20;22.33;;;17.80;99.90;;;;;;5077306;28;20474;-60
2022/06/10 03:08:34;;;;;;;29.63;23.63;;;17.90;99.90;;;;;;5043212;28;20386;-60
2022/06/10 03:11:51;;;;;;;28.98;23.73;;;17.90;99.90;;;;;;5075883;28;20533;-60
2022/06/10 03:14:23;;;;;;;28.42;23.80;;;18.00;99.90;;;;;;5051002;28;20375;-60
2022/06/10 03:17:01;;;;;;;29.70;23.35;;;18.00;99.90;;;;;;5077277;28;20389;-60
2022/06/10 03:19:50;;;;;;;28.35;24.58;;;18.00;99.90;;;;;;5075827;28;20040;-60
2022/06/10 03:22:31;;;;;;;30.85;24.48;;;18.00;99.90;;;;;;5076978;28;20108;-60
2022/06/10 03:25:02;;;;;;;;;;;18.10;99.90;;;;;;5075444;28;20059;-60
2022/06/10 03:27:48;;;;;;;31.08;25.88;;;18.00;99.90;;;;;;5075622;28;19956;-60
2022/06/10 03:30:18;;;;;;;30.35;25.67;;;18.00;99.90;;;;;;5075698;28;20489;-60
2022/06/10 03:33:13;;;;;;;34.75;25.52;;;18.00;99.90;;;;;;5076663;28;20048;-59
2022/06/10 03:35:53;;;;;;;31.92;26.15;;;18.00;99.90;;;;;;5075562;28;20070;-59
2022/06/10 03:38:19;;;;;;;33.22;25.98;;;18.00;99.90;;;;;;5075584;28;20035;-59
2022/06/10 03:40:56;;;;;;;33.38;27.55;;;18.00;99.90;;;;;;5076587;28;20063;-60
2022/06/10 03:43:24;;;;;;;32.25;26.35;;;18.00;99.90;;;;;;5075322;28;20024;-59
2022/06/10 03:45:59;;;;;;;32.65;27.35;;;18.00;99.90;;;;;;5075394;28;20078;-60
2022/06/10 03:48:27;;;;;;;28.35;25.17;;;18.00;99.90;;;;;;5076566;28;20092;-59
2022/06/10 03:50:54;;;;;;;28.70;24.10;;;18.00;99.90;;;;;;5058327;28;20036;-60
2022/06/10 03:53:24;;;;;;;36.30;27.33;;;18.00;99.90;;;;;;5075147;28;20047;-59
2022/06/10 03:55:50;;;;;;;34.88;26.48;;;18.00;99.90;;;;;;5075232;28;20028;-60
2022/06/10 03:58:16;;;;;;;34.95;26.88;;;18.00;99.90;;;;;;5076361;28;20420;-59
2022/06/10 04:00:43;;;;;;;34.55;27.15;;;18.10;99.90;;;;;;5076246;28;20063;-59
2022/06/10 04:03:10;;;;;;;33.20;25.27;;;18.10;99.90;;;;;;5074934;28;20547;-59
2022/06/10 04:05:36;;;;;;;33.35;25.92;;;18.10;99.90;;;;;;5076634;28;20103;-60
2022/06/10 04:08:03;;;;;;;33.28;26.13;;;18.10;99.90;;;;;;5075874;28;20071;-60
2022/06/10 04:10:30;;;;;;;34.20;25.98;;;18.10;99.90;;;;;;5076133;28;20033;-59
2022/06/10 04:12:57;;;;;;;32.72;26.95;;;18.20;99.90;;;;;;5076089;28;20099;-59
2022/06/10 04:15:27;;;;;;;32.97;26.83;;;18.20;99.90;;;;;;5075762;28;20035;-59
2022/06/10 04:17:55;;;;;;;32.97;26.77;;;18.20;99.90;;;;;;5076420;28;20024;-60
2022/06/10 04:20:27;;;;;;;35.97;28.30;;;18.20;99.90;;;;;;5074443;28;20020;-60
2022/06/10 04:22:54;;;;;;;38.33;27.42;;;18.10;99.90;;;;;;5075838;28;20028;-59
2022/06/10 04:25:20;;;;;;;37.33;28.65;;;18.10;99.90;;;;;;5074582;28;20062;-59
2022/06/10 04:27:46;;;;;;;33.40;26.45;;;18.10;99.90;;;;;;5074342;28;20428;-59
2022/06/10 04:30:26;;;;;;;31.42;26.70;;;18.10;99.90;;;;;;5075905;28;20028;-59
2022/06/10 04:32:53;;;;;;;34.87;26.93;;;18.10;99.90;;;;;;5075335;28;20033;-59
2022/06/10 04:35:20;;;;;;;49.92;27.10;;;18.00;99.90;;;;;;5075756;28;20048;-59
2022/06/10 04:37:46;;;;;;;31.48;25.50;;;18.10;99.90;;;;;;5075608;28;20111;-60
2022/06/10 04:40:16;;;;;;;35.63;29.00;;;18.10;99.90;;;;;;5074002;28;20035;-59
2022/06/10 04:42:46;;;;;;;32.88;26.08;;;18.10;99.90;;;;;;5074196;28;20098;-59
2022/06/10 04:45:15;;;;;;;35.70;28.23;;;18.20;99.90;;;;;;5074094;28;20116;-60
2022/06/10 04:47:41;;;;;;;40.20;27.67;;;18.20;99.90;;;;;;5075192;28;20052;-60
2022/06/10 04:50:10;;;;;;;36.50;27.95;;;18.20;99.90;;;;;;5073945;28;20055;-59
2022/06/10 04:52:36;;;;;;;34.42;26.38;;;18.10;99.90;;;;;;5075176;28;20112;-60
2022/06/10 04:55:05;;;;;;;39.28;28.30;;;18.10;99.90;;;;;;5070469;28;20057;-60
2022/06/10 04:57:31;;;;;;;39.17;28.75;;;18.20;99.90;;;;;;5067763;28;20021;-60
2022/06/10 04:59:57;;;;;;;39.53;28.15;;;18.10;99.90;;;;;;5055415;28;20098;-60
2022/06/10 05:02:23;;;;;;;41.53;30.10;;;18.20;99.90;;;;;;5047673;28;20021;-60
2022/06/10 05:04:49;;;;;;;33.28;26.38;;;18.20;99.90;;;;;;5055529;28;20104;-59
2022/06/10 05:07:15;;;;;;;37.05;26.25;;;18.20;99.90;;;;;;5086000;28;20075;-60
2022/06/10 05:09:41;;;;;;;35.83;26.83;;;18.10;99.90;;;;;;5052546;28;20032;-59
2022/06/10 05:12:07;;;;;;;37.10;27.40;;;18.10;99.90;;;;;;5053395;28;20021;-60
2022/06/10 05:14:34;;;;;;;34.13;26.30;;;18.10;99.90;;;;;;5054759;28;20079;-60
2022/06/10 05:17:02;;;;;;;32.92;27.13;;;18.10;99.90;;;;;;5054770;28;20025;-60
2022/06/10 05:19:29;;;;;;;34.58;27.02;;;18.20;99.90;;;;;;5054762;28;20025;-60
2022/06/10 05:21:56;;;;;;;38.92;27.85;;;18.20;99.90;;;;;;5054819;28;20040;-60
2022/06/10 05:24:22;;;;;;;38.83;29.10;;;18.10;99.90;;;;;;5054864;28;20028;-59
2022/06/10 05:26:49;;;;;;;41.22;30.05;;;18.00;99.90;;;;;;5054575;28;20463;-60
2022/06/10 05:29:15;;;;;;;36.63;26.40;;;18.00;99.90;;;;;;5054449;28;20482;-60
2022/06/10 05:31:41;;;;;;;37.75;28.25;;;18.10;99.90;;;;;;5054489;28;20032;-60
2022/06/10 05:36:52;;;;;;;38.22;28.52;;;18.10;99.90;;;;;;5053630;28;20433;-60
2022/06/10 05:39:17;;;;;;;39.60;29.38;;;18.20;99.90;;;;;;5054397;28;20055;-60
2022/06/10 05:44:28;;;;;;;42.20;29.08;;;18.00;99.90;;;;;;5052669;28;20059;-59
2022/06/10 05:46:55;;;;;;;41.95;30.25;;;18.20;99.90;;;;;;5052451;28;20029;-60
2022/06/10 05:49:21;;;;;;;42.75;30.65;;;18.20;99.90;;;;;;5053095;28;20035;-59
2022/06/10 05:51:47;;;;;;;46.95;32.00;;;18.30;99.90;;;;;;5059669;28;20084;-60
2022/06/10 05:54:14;;;;;;;44.60;30.48;;;18.30;99.90;;;;;;5053248;28;20504;-59
2022/06/10 05:56:40;;;;;;;42.95;30.58;;;18.30;99.90;;;;;;5053302;28;20025;-59
2022/06/10 05:59:07;;;;;;;42.50;29.40;;;18.30;99.90;;;;;;5051575;28;20104;-59
2022/06/10 06:01:33;;;;;;;45.40;31.58;;;18.30;99.90;;;;;;5055017;28;20032;-60
2022/06/10 06:03:59;;;;;;;48.30;30.02;;;18.40;99.90;;;;;;5052020;28;20036;-60
2022/06/10 06:06:25;;;;;;;38.33;29.20;;;18.40;99.90;;;;;;5053408;28;20085;-60
2022/06/10 06:08:50;;;;;;;38.85;29.60;;;18.50;99.90;;;;;;5053759;28;20079;-59
2022/06/10 06:11:17;;;;;;;38.67;29.20;;;18.50;99.90;;;;;;5051978;28;20033;-60
2022/06/10 06:13:43;;;;;;;42.25;28.92;;;18.50;99.90;;;;;;5050390;28;20056;-59
2022/06/10 06:16:12;;;;;;;37.67;28.98;;;18.60;99.90;;;;;;5051173;28;20112;-60
2022/06/10 06:18:38;;;;;;;39.28;29.23;;;18.60;99.90;;;;;;5051509;28;20048;-60
2022/06/10 06:21:05;;;;;;;37.78;28.30;;;18.50;99.90;;;;;;5051692;28;20536;-60
2022/06/10 06:23:31;;;;;;;35.20;27.30;;;18.70;99.90;;;;;;5051053;28;20060;-59
2022/06/10 06:25:57;;;;;;;45.90;28.63;;;18.80;99.90;;;;;;5053706;28;20105;-60
2022/06/10 06:28:23;;;;;;;40.50;27.90;;;18.80;99.90;;;;;;5052016;28;20482;-60
2022/06/10 06:30:49;;;;;;;34.00;27.63;;;18.90;99.90;;;;;;5053770;28;20060;-60
2022/06/10 06:33:16;;;;;;;37.05;28.23;;;18.90;99.90;;;;;;5051115;28;20198;-60
2022/06/10 06:35:48;;;;;;;34.92;26.65;;;18.90;99.90;;;;;;5053836;28;20107;-60
2022/06/10 06:38:14;;;;;;;33.83;26.67;;;18.80;99.90;;;;;;5053685;28;20629;-60
2022/06/10 06:40:41;;;;;;;32.05;25.40;;;18.90;99.90;;;;;;5052609;28;20112;-60
2022/06/10 06:43:11;;;;;;;28.45;23.55;;;18.90;99.90;;;;;;5053754;28;20025;-60
2022/06/10 06:45:40;;;;;;;28.98;24.15;;;18.80;99.90;;;;;;5053571;28;20378;-60
2022/06/10 06:48:10;;;;;;;30.33;23.85;;;18.80;99.90;;;;;;5053501;28;20025;-60
2022/06/10 06:50:41;;;;;;;30.45;23.75;;;18.70;99.90;;;;;;5048783;28;20021;-60
2022/06/10 06:53:07;;;;;;;36.78;25.17;;;18.70;99.90;;;;;;5073136;28;20032;-59
2022/06/10 06:55:36;;;;;;;49.15;30.42;;;18.70;99.90;;;;;;5072304;28;20028;-60
2022/06/10 06:58:03;;;;;;;27.90;22.58;;;18.80;99.90;;;;;;5073941;28;20028;-60
2022/06/10 07:00:29;;;;;;;29.55;23.10;;;18.80;99.90;;;;;;5074234;28;20071;-60
2022/06/10 07:02:55;;;;;;;31.90;22.25;;;18.90;99.90;;;;;;5077701;28;20020;-60
2022/06/10 07:05:21;;;;;;;35.03;27.05;;;18.90;99.90;;;;;;5077607;28;20059;-59
2022/06/10 07:07:47;;;;;;;39.53;30.20;;;18.80;99.90;;;;;;5076727;28;20056;-60
2022/06/10 07:10:15;;;;;;;34.60;27.73;;;18.80;99.90;;;;;;5075883;28;20032;-60
2022/06/10 07:12:41;;;;;;;43.35;33.08;;;18.90;99.90;;;;;;5075809;28;20036;-58
2022/06/10 07:15:07;;;;;;;50.50;36.28;;;18.90;99.90;;;;;;5076071;28;20043;-59
2022/06/10 07:17:33;;;;;;;50.83;36.63;;;18.90;99.90;;;;;;5076153;28;20066;-60
2022/06/10 07:20:00;;;;;;;49.25;33.88;;;19.10;99.90;;;;;;5076206;28;20032;-61
2022/06/10 07:22:27;;;;;;;49.55;35.40;;;19.20;99.90;;;;;;5074119;28;20024;-60
2022/06/10 07:24:53;;;;;;;51.60;37.42;;;19.20;99.90;;;;;;5076282;28;20531;-60
2022/06/10 07:27:20;;;;;;;43.47;32.97;;;19.40;99.90;;;;;;5073360;28;20028;-60
2022/06/10 07:29:47;;;;;;;50.17;37.00;;;19.70;99.90;;;;;;5076051;28;20142;-60
2022/06/10 07:32:12;;;;;;;50.15;34.65;;;19.80;99.90;;;;;;5076094;28;20044;-60
2022/06/10 07:34:38;;;;;;;46.92;33.17;;;20.00;99.90;;;;;;5076379;28;20031;-60
2022/06/10 07:37:05;;;;;;;40.50;32.30;;;20.10;99.90;;;;;;5076541;28;20028;-60
2022/06/10 07:39:34;;;;;;;42.35;31.30;;;20.30;99.90;;;;;;5076196;28;20052;-60
2022/06/10 07:42:01;;;;;;;41.03;30.73;;;20.30;99.90;;;;;;5075186;28;20082;-58
2022/06/10 07:44:30;;;;;;;41.42;31.35;;;20.40;99.90;;;;;;5075619;28;20484;-58
2022/06/10 07:46:58;;;;;;;41.40;30.15;;;20.40;99.90;;;;;;5074266;28;20024;-58
2022/06/10 07:49:25;;;;;;;39.63;31.50;;;20.40;99.90;;;;;;5072940;28;20545;-57
2022/06/10 07:51:51;;;;;;;39.65;30.27;;;20.40;99.90;;;;;;5074636;28;20039;-58
2022/06/10 07:54:17;;;;;;;32.63;28.35;;;20.50;99.90;;;;;;5075236;28;20033;-58
2022/06/10 07:56:47;;;;;;;41.75;31.08;;;20.50;99.90;;;;;;5073124;28;20085;-57
2022/06/10 07:59:14;;;;;;;37.70;32.05;;;20.60;99.90;;;;;;5073958;28;20029;-59
2022/06/10 08:01:41;;;;;;;45.78;36.40;;;20.70;99.90;;;;;;5073783;28;20077;-58
2022/06/10 08:04:08;;;;;;;46.78;35.63;;;20.70;99.90;;;;;;5074846;28;20112;-58
2022/06/10 08:06:40;;;;;;;47.30;35.50;;;20.60;99.90;;;;;;5075398;28;20028;-58
2022/06/10 08:09:08;;;;;;;43.30;37.25;;;20.90;99.90;;;;;;5074686;28;20032;-58
2022/06/10 08:11:36;;;;;;;46.22;35.88;;;21.10;99.90;;;;;;5074965;28;20081;-59
2022/06/10 08:14:03;;;;;;;42.10;34.72;;;21.60;99.90;;;;;;5074581;28;20028;-58
2022/06/10 08:16:31;;;;;;;41.65;35.75;;;22.10;99.90;;;;;;5074284;28;20382;-59
2022/06/10 08:18:57;;;;;;;37.30;30.58;;;22.40;99.90;;;;;;5072123;28;20531;-58
2022/06/10 08:24:07;;;;;;;35.85;29.33;;;22.90;99.90;;;;;;5076333;28;20059;-57
2022/06/10 08:26:36;;;;;;;31.92;26.98;;;23.00;99.90;;;;;;5074761;28;20489;-57
2022/06/10 08:29:03;;;;;;;32.50;26.98;;;23.30;99.90;;;;;;5074576;28;20080;-57
2022/06/10 08:31:30;;;;;;;33.67;27.20;;;23.30;99.90;;;;;;5075074;28;20474;-57
2022/06/10 08:33:57;;;;;;;28.95;25.23;;;23.90;99.90;;;;;;5074950;28;20032;-57
2022/06/10 08:36:26;;;;;;;31.40;24.15;;;23.70;99.90;;;;;;5075438;28;20470;-57
2022/06/10 08:38:52;;;;;;;32.00;22.95;;;23.80;99.90;;;;;;5074875;28;20382;-57
2022/06/10 08:41:45;;;;;;;31.52;24.10;;;23.80;99.90;;;;;;5075137;28;20036;-57
2022/06/10 08:44:37;;;;;;;28.73;20.35;;;24.00;99.90;;;;;;5046018;28;20029;-57
2022/06/10 08:47:22;;;;;;;23.70;21.17;;;24.00;99.90;;;;;;5054347;28;20028;-57
2022/06/10 08:50:06;;;;;;;31.23;21.20;;;24.20;99.90;;;;;;5055109;28;20432;-57
2022/06/10 08:53:12;;;;;;;41.05;19.95;;;23.80;99.90;;;;;;5054797;28;20490;-57
2022/06/10 08:56:03;;;;;;;121.78;23.50;;;24.30;99.90;;;;;;4989709;28;20033;-56
2022/06/10 08:58:37;;;;;;;40.70;19.17;;;24.40;99.90;;;;;;4993161;28;20026;-57
2022/06/10 09:01:11;;;;;;;29.48;18.50;;;24.40;99.90;;;;;;4992990;28;20034;-57
2022/06/10 09:04:23;;;;;;;28.00;17.52;;;24.80;99.90;;;;;;4993214;28;20061;-57
2022/06/10 09:06:54;;;;;;;32.15;16.70;;;24.80;99.90;;;;;;4990417;28;20081;-55
2022/06/10 09:09:26;;;;;;;16.65;13.52;;;25.40;96.80;;;;;;4988827;28;20114;-56
2022/06/10 09:12:01;;;;;;;15.02;12.55;;;25.60;97.80;;;;;;4990509;28;20050;-55
2022/06/10 09:14:29;;;;;;;19.10;13.32;;;25.90;97.40;;;;;;4972675;28;20101;-55
2022/06/10 09:17:21;;;;;;;12.98;11.55;;;26.10;98.00;;;;;;4992333;28;20491;-55
2022/06/10 09:20:09;;;;;;;23.00;14.73;;;26.20;96.30;;;;;;4989994;28;20053;-57
2022/06/10 09:23:13;;;;;;;24.13;15.77;;;25.20;97.90;;;;;;4990398;28;20500;-57
2022/06/10 09:25:43;;;;;;;21.48;14.25;;;25.20;99.90;;;;;;4993337;28;20101;-57
2022/06/10 09:28:10;;;;;;;24.05;14.18;;;25.30;99.90;;;;;;4992397;28;20030;-57
2022/06/10 09:30:45;;;;;;;16.60;13.15;;;25.50;99.90;;;;;;4992846;28;20038;-56
2022/06/10 09:33:25;;;;;;;13.82;12.50;;;25.40;99.90;;;;;;5063958;28;20035;-56
2022/06/10 09:36:02;;;;;;;15.35;12.45;;;25.10;99.90;;;;;;5074021;28;20029;-56
2022/06/10 09:38:54;;;;;;;29.85;15.20;;;25.00;99.90;;;;;;5072743;28;20024;-56
2022/06/10 09:41:41;;;;;;;18.75;11.90;;;25.20;99.90;;;;;;5031101;28;20051;-57
2022/06/10 09:44:24;;;;;;;13.88;11.82;;;25.20;95.90;;;;;;5064269;28;20055;-56
2022/06/10 09:47:02;;;;;;;25.08;12.18;;;26.00;93.20;;;;;;5074947;28;20073;-57
2022/06/10 09:49:29;;;;;;;13.30;11.88;;;26.10;94.10;;;;;;5074400;28;20039;-56
2022/06/10 09:52:11;;;;;;;23.00;12.85;;;25.90;94.60;;;;;;5073806;28;20048;-57
2022/06/10 09:54:37;;;;;;;16.90;12.30;;;25.70;95.20;;;;;;5073990;28;20020;-54
2022/06/10 09:57:22;;;;;;;18.05;14.00;;;25.50;99.30;;;;;;5073812;28;20097;-56
2022/06/10 09:59:57;;;;;;;19.92;12.88;;;25.40;95.80;;;;;;5073934;28;20060;-57
2022/06/10 10:02:56;;;;;;;17.67;12.82;;;25.50;94.10;;;;;;5071409;28;20146;-56
2022/06/10 10:05:36;;;;;;;24.42;13.13;;;25.70;96.30;;;;;;5070978;28;20099;-54
2022/06/10 10:08:26;;;;;;;23.50;13.35;;;26.20;93.00;;;;;;5066651;28;20041;-54
2022/06/10 10:11:00;;;;;;;22.60;12.68;;;26.30;94.30;;;;;;5073673;28;20028;-54
2022/06/10 10:13:38;;;;;;;24.60;12.15;;;26.00;91.70;;;;;;5073101;28;20020;-54
2022/06/10 10:16:46;;;;;;;16.20;12.25;;;26.10;92.30;;;;;;5066091;28;20029;-54
2022/06/10 10:19:46;;;;;;;17.13;12.82;;;26.00;96.40;;;;;;5023815;28;20041;-54
2022/06/10 10:22:38;;;;;;;16.23;13.07;;;25.80;99.80;;;;;;5070709;28;20028;-54
2022/06/10 10:25:11;;;;;;;14.65;12.82;;;25.40;99.90;;;;;;5062867;28;20534;-54
2022/06/10 10:27:39;;;;;;;37.17;16.13;;;24.90;99.90;;;;;;5073192;28;20025;-54
2022/06/10 10:30:16;;;;;;;17.30;11.73;;;24.70;99.90;;;;;;5073578;28;20060;-54
2022/06/10 10:32:47;;;;;;;21.42;12.15;;;24.90;99.90;;;;;;5073283;28;20067;-54
2022/06/10 10:35:27;;;;;;;16.00;11.13;;;25.30;99.90;;;;;;5077352;28;20035;-54
2022/06/10 10:38:00;;;;;;;18.45;11.90;;;25.50;99.90;;;;;;5076795;28;20021;-55
2022/06/10 10:40:45;;;;;;;20.90;11.45;;;25.50;99.90;;;;;;5077255;28;20162;-56
2022/06/10 10:43:31;;;;;;;14.38;11.85;;;25.30;99.90;;;;;;5078071;28;20470;-55
2022/06/10 10:46:04;;;;;;;24.65;13.68;;;25.20;99.90;;;;;;5077971;28;20356;-55
2022/06/10 10:48:36;;;;;;;20.45;14.07;;;24.50;99.90;;;;;;5074499;28;20090;-55
2022/06/10 10:51:21;;;;;;;19.35;13.43;;;24.30;99.90;;;;;;5076457;28;20477;-55
2022/06/10 10:53:57;;;;;;;18.52;13.68;;;23.90;99.90;;;;;;5077775;28;20028;-55
2022/06/10 10:56:37;;;;;;;19.35;14.68;;;23.60;99.90;;;;;;5076128;28;20117;-55
2022/06/10 10:59:05;;;;;;;22.35;14.77;;;23.50;99.90;;;;;;5077453;28;20028;-55
2022/06/10 11:01:44;;;;;;;24.48;15.15;;;23.20;99.90;;;;;;5076936;28;20055;-55
2022/06/10 11:04:34;;;;;;;19.35;14.85;;;23.10;99.90;;;;;;5077177;28;20466;-54
2022/06/10 11:07:14;;;;;;;18.55;14.95;;;23.00;99.90;;;;;;5077235;28;20036;-54
2022/06/10 11:09:44;;;;;;;;;;;22.90;99.90;;;;;;5077633;28;20051;-54
2022/06/10 11:12:21;;;;;;;24.55;15.98;;;22.70;99.90;;;;;;5075156;28;19912;-54
2022/06/10 11:14:56;;;;;;;21.02;15.57;;;22.60;99.90;;;;;;5108550;28;20027;-55
2022/06/10 11:17:24;;;;;;;35.47;19.15;;;22.40;99.90;;;;;;5077333;28;20155;-55
2022/06/10 11:20:00;;;;;;;22.88;16.70;;;22.10;99.90;;;;;;5077174;28;20025;-55
2022/06/10 11:22:39;;;;;;;24.50;17.13;;;22.00;99.90;;;;;;5074737;28;20024;-55
2022/06/10 11:25:18;;;;;;;25.63;18.05;;;21.70;99.90;;;;;;5074752;28;20075;-55
2022/06/10 11:27:50;;;;;;;30.40;18.92;;;21.60;99.90;;;;;;5076937;28;20279;-55
2022/06/10 11:30:21;;;;;;;25.75;18.17;;;21.50;99.90;;;;;;5075967;28;20036;-55
2022/06/10 11:32:53;;;;;;;22.10;18.85;;;21.50;99.90;;;;;;5076693;28;20040;-55
2022/06/10 11:35:20;;;;;;;22.10;19.52;;;21.40;99.90;;;;;;5076664;28;20036;-55
2022/06/10 11:37:53;;;;;;;25.00;19.45;;;21.40;99.90;;;;;;5077318;28;20115;-55
2022/06/10 11:40:41;;;;;;;28.77;21.88;;;21.40;99.90;;;;;;5077445;28;20044;-55
2022/06/10 11:43:19;;;;;;;24.10;21.55;;;21.40;99.90;;;;;;5077472;28;20378;-55
2022/06/10 11:46:24;;;;;;;41.72;26.83;;;21.30;99.90;;;;;;5076499;28;20505;-55
2022/06/10 11:49:24;;;;;;;33.88;24.60;;;21.30;99.90;;;;;;5077134;28;20021;-55
2022/06/10 11:52:01;;;;;;;30.23;24.83;;;21.40;99.90;;;;;;5076692;28;20045;-55
2022/06/10 11:54:32;;;;;;;27.75;24.15;;;21.60;99.90;;;;;;5076422;28;20033;-55
2022/06/10 12:00:33;;;;;;;36.28;28.67;;;21.70;99.90;;;;;;5076102;28;20032;-55
2022/06/10 12:03:25;;;;;;;32.08;22.35;;;21.70;99.90;;;;;;5076091;28;20379;-56
2022/06/10 12:06:27;;;;;;;27.77;21.75;;;21.70;99.90;;;;;;5065289;28;20079;-55
2022/06/10 12:09:26;;;;;;;26.92;24.05;;;21.70;99.90;;;;;;5058778;28;20045;-55
2022/06/10 12:11:58;;;;;;;26.52;22.83;;;21.80;99.90;;;;;;5076937;28;20031;-56
2022/06/10 12:14:31;;;;;;;26.70;23.95;;;21.60;99.90;;;;;;5075653;28;20139;-55
2022/06/10 12:17:03;;;;;;;41.88;29.17;;;21.10;99.90;;;;;;5075918;28;20444;-56
2022/06/10 12:19:36;;;;;;;44.42;27.10;;;21.10;99.90;;;;;;5075663;28;20089;-56
2022/06/10 12:22:02;;;;;;;34.08;30.02;;;21.10;99.90;;;;;;5075082;28;20080;-56
2022/06/10 12:24:28;;;;;;;38.50;31.25;;;20.80;99.90;;;;;;5075587;28;20028;-57
2022/06/10 12:27:01;;;;;;;44.63;33.95;;;20.60;99.90;;;;;;5075770;28;20093;-55
2022/06/10 12:29:42;;;;;;;41.63;30.70;;;20.60;99.90;;;;;;5076075;28;20428;-55
2022/06/10 12:32:30;;;;;;;38.95;32.88;;;20.60;99.90;;;;;;5074942;28;20493;-55
2022/06/10 12:34:56;;;;;;;34.53;29.05;;;20.50;99.90;;;;;;5072643;28;20142;-55
2022/06/10 12:37:25;;;;;;;39.53;30.65;;;20.40;99.90;;;;;;5074766;28;20032;-55
2022/06/10 12:40:04;;;;;;;37.40;29.83;;;20.30;99.90;;;;;;5074606;28;20021;-55
2022/06/10 12:42:43;;;;;;;42.05;30.92;;;20.10;99.90;;;;;;5074672;28;20016;-55
2022/06/10 12:45:30;;;;;;;45.15;34.17;;;20.20;99.90;;;;;;5074361;28;20024;-55
2022/06/10 12:48:01;;;;;;;35.05;29.67;;;20.30;99.90;;;;;;5072172;28;20050;-55
2022/06/10 12:50:35;;;;;;;36.28;31.52;;;20.40;99.90;;;;;;5074144;28;20081;-55
2022/06/10 12:53:16;;;;;;;30.85;26.27;;;20.50;99.90;;;;;;5074819;28;20421;-55
2022/06/10 12:56:00;;;;;;;27.20;20.20;;;20.40;99.90;;;;;;5075126;28;20061;-55
2022/06/10 12:58:38;;;;;;;29.17;25.02;;;20.50;99.90;;;;;;5071772;28;20555;-55
2022/06/10 13:01:15;;;;;;;22.95;17.95;;;20.60;99.90;;;;;;5071889;28;20087;-55
2022/06/10 13:03:42;;;;;;;14.52;12.25;;;20.80;99.90;;;;;;5072817;28;20016;-55
2022/06/10 13:06:26;;;;;;;20.00;15.65;;;21.00;99.90;;;;;;5075216;28;20122;-55
2022/06/10 13:08:55;;;;;;;18.88;13.85;;;21.40;99.90;;;;;;5073600;28;20051;-59
2022/06/10 13:11:41;;;;;;;20.35;13.00;;;21.70;99.90;;;;;;5074955;28;20377;-59
2022/06/10 13:14:19;;;;;;;24.08;16.42;;;21.50;99.90;;;;;;5073692;28;20029;-59
2022/06/10 13:17:00;;;;;;;18.20;15.02;;;21.40;99.90;;;;;;5074910;28;20123;-59
2022/06/10 13:19:53;;;;;;;19.45;17.33;;;21.10;99.90;;;;;;5074408;28;20275;-59